WetterOnline ( https://www.wetteronline.de )

Wetter aktuell Friesoythe

Aktuelles Wetter: Friesoythe-Altenoythe (6m)

6-stündlich | Neueste Meldungen
Ortszeit Temperatur Wetter
Mi, 17.04. 14:00 7.9° C leichter Regen
Mi, 17.04. 8:00 4.8° C bewölkt
Mi, 17.04. 2:00 3.9° C wolkenlos
Di, 16.04. 20:00 8.8° C bewölkt
Di, 16.04. 14:00 8.7° C bedeckt
Di, 16.04. 8:00 5.4° C wolkig
Di, 16.04. 2:00 5.3° C bewölkt
Mo, 15.04. 20:00 6.1° C leichter Regen
Ortszeit Temperatur Wetter
Mi, 17.04. 17:30 8.4° C leicht bewölkt
Mi, 17.04. 17:20 8.4° C leicht bewölkt
Mi, 17.04. 17:10 8.3° C wolkig
Mi, 17.04. 17:00 7.9° C wolkig
Mi, 17.04. 16:50 7.9° C wolkig
Mi, 17.04. 16:40 7.6° C bedeckt
Mi, 17.04. 16:30 7.1° C leichter Regen
Mi, 17.04. 16:00 7.4° C Regen
Mi, 17.04. 15:30 6.3° C leichter Regen
Mi, 17.04. 15:00 6.5° C Regen
Mi, 17.04. 14:30 8.8° C bedeckt
Ortszeit Relative Feuchte Sichtweite
Mi, 17.04. 14:00 72% 50 km
Mi, 17.04. 8:00 91% 35 km
Mi, 17.04. 2:00 85% 50 km
Di, 16.04. 20:00 71% 65 km
Di, 16.04. 14:00 73% >70 km
Di, 16.04. 8:00 88% 60 km
Di, 16.04. 2:00 88% 55 km
Mo, 15.04. 20:00 85% 55 km
Ortszeit Relative Feuchte Sichtweite
Mi, 17.04. 17:30 74% >70 km
Mi, 17.04. 17:20 74% -
Mi, 17.04. 17:10 75% -
Mi, 17.04. 17:00 79% >70 km
Mi, 17.04. 16:50 79% -
Mi, 17.04. 16:40 81% -
Mi, 17.04. 16:30 82% 6 km
Mi, 17.04. 16:00 83% >70 km
Mi, 17.04. 15:30 85% 18 km
Mi, 17.04. 15:00 79% 26 km
Mi, 17.04. 14:30 67% 55 km
Ortszeit Niederschlagsmenge Niederschlagsart
Mi, 17.04. 14:00 0.3 l/m2 in 6 Std. Regen
Mi, 17.04. 8:00 0.0 l/m2 in 12 Std. -
Mi, 17.04. 2:00 0.0 l/m2 in 6 Std. -
Di, 16.04. 20:00 3 l/m2 in 12 Std. Regen
Di, 16.04. 14:00 2 l/m2 in 6 Std. Regen
Di, 16.04. 8:00 0.2 l/m2 in 12 Std. Regen
Di, 16.04. 2:00 0.1 l/m2 in 6 Std. Regen
Mo, 15.04. 20:00 4 l/m2 in 12 Std. Regen
Ortszeit Niederschlagsmenge Niederschlagsart
Mi, 17.04. 17:30 0.0 l/m2 in 30 Min -
Mi, 17.04. 17:20 keine Meldung -
Mi, 17.04. 17:10 keine Meldung -
Mi, 17.04. 17:00 0.2 l/m2 in 1 Std. Regen
Mi, 17.04. 16:50 keine Meldung -
Mi, 17.04. 16:40 keine Meldung -
Mi, 17.04. 16:30 <0.05 l/m2 in 30 Min -
Mi, 17.04. 16:00 1.9 l/m2 in 1 Std. Regen
Mi, 17.04. 15:30 1.7 l/m2 in 30 Min -
Mi, 17.04. 15:00 0.1 l/m2 in 1 Std. Regen
Mi, 17.04. 14:30 <0.05 l/m2 in 30 Min Schneeregen
Ortszeit Stärke Spitze Richtung
km/h Bft. km/h Grad Sektor
Mi, 17.04. 14:00 4 1 25 250° W
Mi, 17.04. 8:00 6 1 13 260° W
Mi, 17.04. 2:00 11 2 29 290° W
Di, 16.04. 20:00 9 2 39 360° N
Di, 16.04. 14:00 14 3 29 350° N
Di, 16.04. 8:00 14 3 43 190° S
Di, 16.04. 2:00 22 4 43 220° SW
Mo, 15.04. 20:00 25 4 65 250° W
Ortszeit Stärke Spitze Richtung
km/h Bft. km/h Grad Sektor
Mi, 17.04. 17:30 11 2 22 10° N
Mi, 17.04. 17:20 11 2 - 10° N
Mi, 17.04. 17:10 13 3 - 20° N
Mi, 17.04. 17:00 7 2 22 350° N
Mi, 17.04. 16:50 7 2 - 350° N
Mi, 17.04. 16:40 7 2 - 330° NW
Mi, 17.04. 16:30 11 2 22 340° N
Mi, 17.04. 16:00 7 2 25 280° W
Mi, 17.04. 15:30 11 2 25 50° NO
Mi, 17.04. 15:00 15 3 26 10° N
Mi, 17.04. 14:30 4 1 7 130° SO
Ortszeit Untergrenze Bedeckung Gattung
total tief tief mittel hoch
Mi, 17.04. 14:00 840 m 8/8 8/8 - - -
Mi, 17.04. 8:00 690 m 8/8 7/8 - - -
Mi, 17.04. 2:00 - 0/8 0/8 - - -
Di, 16.04. 20:00 1800 m 7/8 7/8 - - -
Di, 16.04. 14:00 630 m 8/8 8/8 - - -
Di, 16.04. 8:00 1050 m 7/8 2/8 - - -
Di, 16.04. 2:00 510 m 7/8 7/8 - - -
Mo, 15.04. 20:00 540 m 8/8 8/8 - - -
Ortszeit Bedeckungsgrad in Achtel und Wolkenuntergrenze
Mi, 17.04. 17:30 2(1800m) 3(3000m)
Mi, 17.04. 17:20 2(1800m) 3(3000m)
Mi, 17.04. 17:10 5
Mi, 17.04. 17:00 2(1500m) 8(3000m) 8(3600m)
Mi, 17.04. 16:50 2(1500m) 8(3000m) 8(3600m)
Mi, 17.04. 16:40 8
Mi, 17.04. 16:30 4(1470m) 4(1800m) 7(2100m)
Mi, 17.04. 16:00 3(1470m) 7(1800m) 7(2400m)
Mi, 17.04. 15:30 1(660m) 4(1140m) 8(1470m)
Mi, 17.04. 15:00 7(600m) 7(1020m) 7(1290m)
Mi, 17.04. 14:30 2(630m) 6(1500m) 8(1800m)
Ortszeit Luftdruck NN (hPa) Tendenz (hPa in 3 Std.)
Mi, 17.04. 14:00 1010 + 0,1
Mi, 17.04. 8:00 1009 + 0,7
Mi, 17.04. 2:00 1009 + 0,9
Di, 16.04. 20:00 1006 + 1,9
Di, 16.04. 14:00 1001 + 3,1
Di, 16.04. 8:00 997 - 0,2
Di, 16.04. 2:00 998 - 0,3
Mo, 15.04. 20:00 997 + 0,2
Ortszeit Luftdruck NN (hPa) Tendenz (hPa in 3 Std.)
Mi, 17.04. 17:30 1010 + 0,1
Mi, 17.04. 17:20 1010 keine Meldung
Mi, 17.04. 17:10 1010 keine Meldung
Mi, 17.04. 17:00 1010 0,0
Mi, 17.04. 16:50 1010 keine Meldung
Mi, 17.04. 16:40 1010 keine Meldung
Mi, 17.04. 16:30 1010 + 0,1
Mi, 17.04. 16:00 1010 + 0,2
Mi, 17.04. 15:30 1010 + 0,2
Mi, 17.04. 15:00 1010 + 0,2
Mi, 17.04. 14:30 1010 - 0,1
Ortszeit Schneehöhe (cm)
Mi, 17.04. 14:00 0
Mi, 17.04. 8:00 0
Mi, 17.04. 2:00 0
Di, 16.04. 20:00 0
Di, 16.04. 14:00 0
Di, 16.04. 8:00 0
Di, 16.04. 2:00 0
Mo, 15.04. 20:00 0
Ortszeit Schneehöhe (cm)
Mi, 17.04. 17:30 0
Mi, 17.04. 17:20 0
Mi, 17.04. 17:10 -
Mi, 17.04. 17:00 0
Mi, 17.04. 16:50 0
Mi, 17.04. 16:40 -
Mi, 17.04. 16:30 0
Mi, 17.04. 16:00 0
Mi, 17.04. 15:30 0
Mi, 17.04. 15:00 0
Mi, 17.04. 14:30 0
Link zu dieser Seite / Seite empfehlen

Das Wetter in ...